sensor_id;sensor_type;location;lat;lon;timestamp;temperature;humidity
1103;DHT22;538;42.654;23.376;2022-11-27T00:01:33;3.00;70.30
1103;DHT22;538;42.654;23.376;2022-11-27T00:06:31;3.10;66.30
1103;DHT22;538;42.654;23.376;2022-11-27T00:09:01;3.30;64.80
1103;DHT22;538;42.654;23.376;2022-11-27T00:11:29;3.30;63.40
1103;DHT22;538;42.654;23.376;2022-11-27T00:13:57;3.30;62.10
1103;DHT22;538;42.654;23.376;2022-11-27T00:16:25;3.40;61.30
1103;DHT22;538;42.654;23.376;2022-11-27T00:18:53;3.60;59.80
1103;DHT22;538;42.654;23.376;2022-11-27T00:21:21;3.50;59.50
1103;DHT22;538;42.654;23.376;2022-11-27T00:23:51;3.20;59.60
1103;DHT22;538;42.654;23.376;2022-11-27T00:26:19;3.50;59.90
1103;DHT22;538;42.654;23.376;2022-11-27T00:28:47;3.40;60.60
1103;DHT22;538;42.654;23.376;2022-11-27T00:31:16;3.20;61.30
1103;DHT22;538;42.654;23.376;2022-11-27T00:33:44;3.10;63.60
1103;DHT22;538;42.654;23.376;2022-11-27T00:36:12;3.40;64.30
1103;DHT22;538;42.654;23.376;2022-11-27T00:38:40;3.30;65.60
1103;DHT22;538;42.654;23.376;2022-11-27T00:41:10;3.00;67.70
1103;DHT22;538;42.654;23.376;2022-11-27T00:43:37;2.80;68.00
1103;DHT22;538;42.654;23.376;2022-11-27T00:46:05;3.30;69.10
1103;DHT22;538;42.654;23.376;2022-11-27T00:48:32;3.30;67.30
1103;DHT22;538;42.654;23.376;2022-11-27T00:51:00;3.10;66.70
1103;DHT22;538;42.654;23.376;2022-11-27T00:53:28;3.20;65.80
1103;DHT22;538;42.654;23.376;2022-11-27T00:55:55;3.30;65.30
1103;DHT22;538;42.654;23.376;2022-11-27T00:58:25;2.80;65.00
1103;DHT22;538;42.654;23.376;2022-11-27T01:00:57;3.10;65.10
1103;DHT22;538;42.654;23.376;2022-11-27T01:03:24;2.90;63.10
1103;DHT22;538;42.654;23.376;2022-11-27T01:05:52;2.90;61.20
1103;DHT22;538;42.654;23.376;2022-11-27T01:08:20;3.00;59.80
1103;DHT22;538;42.654;23.376;2022-11-27T01:10:48;3.10;58.60
1103;DHT22;538;42.654;23.376;2022-11-27T01:13:15;2.90;58.40
1103;DHT22;538;42.654;23.376;2022-11-27T01:15:44;2.80;59.60
1103;DHT22;538;42.654;23.376;2022-11-27T01:18:12;2.90;60.30
1103;DHT22;538;42.654;23.376;2022-11-27T01:20:39;2.90;61.00
1103;DHT22;538;42.654;23.376;2022-11-27T01:23:07;3.00;61.90
1103;DHT22;538;42.654;23.376;2022-11-27T01:25:34;2.80;62.70
1103;DHT22;538;42.654;23.376;2022-11-27T01:28:01;2.60;64.10
1103;DHT22;538;42.654;23.376;2022-11-27T01:30:28;2.70;64.50
1103;DHT22;538;42.654;23.376;2022-11-27T01:32:57;2.80;65.70
1103;DHT22;538;42.654;23.376;2022-11-27T01:35:24;2.80;65.50
1103;DHT22;538;42.654;23.376;2022-11-27T01:37:51;2.80;65.80
1103;DHT22;538;42.654;23.376;2022-11-27T01:40:18;3.20;64.60
1103;DHT22;538;42.654;23.376;2022-11-27T01:42:45;3.00;63.40
1103;DHT22;538;42.654;23.376;2022-11-27T01:45:15;3.10;64.30
1103;DHT22;538;42.654;23.376;2022-11-27T01:47:44;3.00;64.20
1103;DHT22;538;42.654;23.376;2022-11-27T01:50:18;3.10;65.10
1103;DHT22;538;42.654;23.376;2022-11-27T01:52:49;3.10;65.70
1103;DHT22;538;42.654;23.376;2022-11-27T01:55:24;2.90;64.80
1103;DHT22;538;42.654;23.376;2022-11-27T01:57:55;3.20;64.40
1103;DHT22;538;42.654;23.376;2022-11-27T02:00:25;3.20;64.60
1103;DHT22;538;42.654;23.376;2022-11-27T02:02:52;3.20;64.50
1103;DHT22;538;42.654;23.376;2022-11-27T02:05:22;3.10;64.00
1103;DHT22;538;42.654;23.376;2022-11-27T02:07:51;3.20;63.00
1103;DHT22;538;42.654;23.376;2022-11-27T02:10:19;3.00;63.10
1103;DHT22;538;42.654;23.376;2022-11-27T02:12:54;3.00;62.20
1103;DHT22;538;42.654;23.376;2022-11-27T02:15:29;3.30;63.30
1103;DHT22;538;42.654;23.376;2022-11-27T02:18:05;3.20;60.70
1103;DHT22;538;42.654;23.376;2022-11-27T02:20:42;3.20;60.10
1103;DHT22;538;42.654;23.376;2022-11-27T02:26:40;3.20;60.30
1103;DHT22;538;42.654;23.376;2022-11-27T02:29:13;3.20;60.30
1103;DHT22;538;42.654;23.376;2022-11-27T02:31:45;3.00;61.30
1103;DHT22;538;42.654;23.376;2022-11-27T02:34:21;3.20;61.90
1103;DHT22;538;42.654;23.376;2022-11-27T02:36:56;3.20;62.00
1103;DHT22;538;42.654;23.376;2022-11-27T02:39:30;3.30;61.20
1103;DHT22;538;42.654;23.376;2022-11-27T02:42:06;3.10;60.30
1103;DHT22;538;42.654;23.376;2022-11-27T02:44:41;3.10;59.10
1103;DHT22;538;42.654;23.376;2022-11-27T02:47:10;3.10;58.60
1103;DHT22;538;42.654;23.376;2022-11-27T02:49:38;3.10;56.80
1103;DHT22;538;42.654;23.376;2022-11-27T02:52:07;3.20;56.90
1103;DHT22;538;42.654;23.376;2022-11-27T02:54:35;3.00;56.50
1103;DHT22;538;42.654;23.376;2022-11-27T02:57:05;3.00;55.20
1103;DHT22;538;42.654;23.376;2022-11-27T02:59:35;3.10;54.30
1103;DHT22;538;42.654;23.376;2022-11-27T03:02:06;3.20;53.30
1103;DHT22;538;42.654;23.376;2022-11-27T03:04:40;3.30;52.90
1103;DHT22;538;42.654;23.376;2022-11-27T03:07:15;3.10;52.90
1103;DHT22;538;42.654;23.376;2022-11-27T03:09:46;3.10;53.70
1103;DHT22;538;42.654;23.376;2022-11-27T03:12:15;3.20;53.90
1103;DHT22;538;42.654;23.376;2022-11-27T03:14:46;3.10;54.30
1103;DHT22;538;42.654;23.376;2022-11-27T03:17:24;3.30;53.80
1103;DHT22;538;42.654;23.376;2022-11-27T03:19:59;3.30;54.40
1103;DHT22;538;42.654;23.376;2022-11-27T03:22:28;3.10;55.00
1103;DHT22;538;42.654;23.376;2022-11-27T03:24:56;3.30;56.70
1103;DHT22;538;42.654;23.376;2022-11-27T03:27:30;3.20;57.10
1103;DHT22;538;42.654;23.376;2022-11-27T03:30:03;3.00;56.00
1103;DHT22;538;42.654;23.376;2022-11-27T03:32:31;3.20;56.10
1103;DHT22;538;42.654;23.376;2022-11-27T03:34:59;3.10;57.40
1103;DHT22;538;42.654;23.376;2022-11-27T03:37:26;3.00;58.50
1103;DHT22;538;42.654;23.376;2022-11-27T03:39:54;2.90;59.70
1103;DHT22;538;42.654;23.376;2022-11-27T03:42:25;3.00;61.90
1103;DHT22;538;42.654;23.376;2022-11-27T03:45:02;2.70;62.60
1103;DHT22;538;42.654;23.376;2022-11-27T03:47:46;2.80;62.60
1103;DHT22;538;42.654;23.376;2022-11-27T03:50:21;2.80;64.10
1103;DHT22;538;42.654;23.376;2022-11-27T03:53:02;2.90;66.00
1103;DHT22;538;42.654;23.376;2022-11-27T03:55:36;3.00;67.30
1103;DHT22;538;42.654;23.376;2022-11-27T03:58:10;3.00;68.30
1103;DHT22;538;42.654;23.376;2022-11-27T04:00:41;2.90;67.90
1103;DHT22;538;42.654;23.376;2022-11-27T04:03:11;2.90;69.50
1103;DHT22;538;42.654;23.376;2022-11-27T04:05:39;2.90;68.80
1103;DHT22;538;42.654;23.376;2022-11-27T04:08:06;3.00;70.10
1103;DHT22;538;42.654;23.376;2022-11-27T04:10:33;3.10;70.00
1103;DHT22;538;42.654;23.376;2022-11-27T04:15:27;3.30;69.20
1103;DHT22;538;42.654;23.376;2022-11-27T04:17:56;4.30;69.20
1103;DHT22;538;42.654;23.376;2022-11-27T04:20:23;3.20;67.20
1103;DHT22;538;42.654;23.376;2022-11-27T04:22:50;3.20;66.40
1103;DHT22;538;42.654;23.376;2022-11-27T04:25:18;3.20;65.80
1103;DHT22;538;42.654;23.376;2022-11-27T04:27:45;3.30;65.90
1103;DHT22;538;42.654;23.376;2022-11-27T04:30:13;3.20;66.10
1103;DHT22;538;42.654;23.376;2022-11-27T04:32:40;3.30;66.20
1103;DHT22;538;42.654;23.376;2022-11-27T04:35:09;3.30;66.70
1103;DHT22;538;42.654;23.376;2022-11-27T04:37:36;3.00;66.20
1103;DHT22;538;42.654;23.376;2022-11-27T04:40:05;3.00;66.10
1103;DHT22;538;42.654;23.376;2022-11-27T04:42:32;3.30;66.90
1103;DHT22;538;42.654;23.376;2022-11-27T04:44:59;3.20;68.40
1103;DHT22;538;42.654;23.376;2022-11-27T04:47:26;3.00;68.80
1103;DHT22;538;42.654;23.376;2022-11-27T04:49:54;2.90;70.10
1103;DHT22;538;42.654;23.376;2022-11-27T04:52:23;2.80;71.80
1103;DHT22;538;42.654;23.376;2022-11-27T04:54:50;3.20;73.30
1103;DHT22;538;42.654;23.376;2022-11-27T04:57:17;2.90;73.50
1103;DHT22;538;42.654;23.376;2022-11-27T04:59:44;3.20;71.90
1103;DHT22;538;42.654;23.376;2022-11-27T05:02:12;2.90;71.60
1103;DHT22;538;42.654;23.376;2022-11-27T05:04:39;3.00;72.90
1103;DHT22;538;42.654;23.376;2022-11-27T05:07:06;3.20;72.10
1103;DHT22;538;42.654;23.376;2022-11-27T05:09:35;3.10;71.40
1103;DHT22;538;42.654;23.376;2022-11-27T05:12:02;2.90;72.60
1103;DHT22;538;42.654;23.376;2022-11-27T05:14:29;2.80;74.30
1103;DHT22;538;42.654;23.376;2022-11-27T05:16:58;2.70;75.40
1103;DHT22;538;42.654;23.376;2022-11-27T05:19:26;3.00;74.70
1103;DHT22;538;42.654;23.376;2022-11-27T05:21:54;2.70;74.80
1103;DHT22;538;42.654;23.376;2022-11-27T05:24:22;3.00;76.30
1103;DHT22;538;42.654;23.376;2022-11-27T05:26:52;2.90;75.90
1103;DHT22;538;42.654;23.376;2022-11-27T05:29:20;3.00;74.80
1103;DHT22;538;42.654;23.376;2022-11-27T05:31:47;3.10;73.70
1103;DHT22;538;42.654;23.376;2022-11-27T05:34:15;3.30;72.80
1103;DHT22;538;42.654;23.376;2022-11-27T05:36:42;3.20;71.30
1103;DHT22;538;42.654;23.376;2022-11-27T05:39:10;3.10;70.80
1103;DHT22;538;42.654;23.376;2022-11-27T05:41:38;3.00;72.60
1103;DHT22;538;42.654;23.376;2022-11-27T05:44:09;3.30;73.60
1103;DHT22;538;42.654;23.376;2022-11-27T05:49:04;3.20;73.40
1103;DHT22;538;42.654;23.376;2022-11-27T05:51:32;3.30;72.40
1103;DHT22;538;42.654;23.376;2022-11-27T05:53:59;3.20;70.20
1103;DHT22;538;42.654;23.376;2022-11-27T05:56:26;3.30;69.30
1103;DHT22;538;42.654;23.376;2022-11-27T05:58:53;3.50;68.50
1103;DHT22;538;42.654;23.376;2022-11-27T06:01:22;3.40;68.60
1103;DHT22;538;42.654;23.376;2022-11-27T06:03:49;3.20;68.10
1103;DHT22;538;42.654;23.376;2022-11-27T06:06:17;3.30;69.10
1103;DHT22;538;42.654;23.376;2022-11-27T06:08:45;3.30;71.10
1103;DHT22;538;42.654;23.376;2022-11-27T06:11:14;3.00;72.20
1103;DHT22;538;42.654;23.376;2022-11-27T06:13:43;3.20;73.70
1103;DHT22;538;42.654;23.376;2022-11-27T06:16:12;3.10;72.90
1103;DHT22;538;42.654;23.376;2022-11-27T06:18:41;2.90;72.60
1103;DHT22;538;42.654;23.376;2022-11-27T06:21:10;3.10;72.80
1103;DHT22;538;42.654;23.376;2022-11-27T06:23:37;2.90;72.60
1103;DHT22;538;42.654;23.376;2022-11-27T06:26:09;3.10;71.50
1103;DHT22;538;42.654;23.376;2022-11-27T06:28:37;3.20;69.30
1103;DHT22;538;42.654;23.376;2022-11-27T06:31:07;3.10;68.10
1103;DHT22;538;42.654;23.376;2022-11-27T06:33:34;3.20;68.20
1103;DHT22;538;42.654;23.376;2022-11-27T06:36:04;3.10;66.80
1103;DHT22;538;42.654;23.376;2022-11-27T06:38:32;3.20;64.80
1103;DHT22;538;42.654;23.376;2022-11-27T06:41:04;3.30;64.60
1103;DHT22;538;42.654;23.376;2022-11-27T06:43:32;3.10;64.70
1103;DHT22;538;42.654;23.376;2022-11-27T06:46:00;3.30;65.10
1103;DHT22;538;42.654;23.376;2022-11-27T06:48:28;3.20;65.10
1103;DHT22;538;42.654;23.376;2022-11-27T06:50:58;3.20;64.70
1103;DHT22;538;42.654;23.376;2022-11-27T06:53:27;3.20;64.90
1103;DHT22;538;42.654;23.376;2022-11-27T06:55:54;3.10;65.00
1103;DHT22;538;42.654;23.376;2022-11-27T06:58:22;3.50;65.90
1103;DHT22;538;42.654;23.376;2022-11-27T07:00:55;3.00;66.30
1103;DHT22;538;42.654;23.376;2022-11-27T07:03:22;3.30;66.90
1103;DHT22;538;42.654;23.376;2022-11-27T07:05:49;3.30;67.50
1103;DHT22;538;42.654;23.376;2022-11-27T07:08:17;3.00;67.30
1103;DHT22;538;42.654;23.376;2022-11-27T07:10:46;3.30;67.70
1103;DHT22;538;42.654;23.376;2022-11-27T07:13:13;3.30;66.30
1103;DHT22;538;42.654;23.376;2022-11-27T07:15:40;3.40;66.40
1103;DHT22;538;42.654;23.376;2022-11-27T07:18:07;3.60;64.40
1103;DHT22;538;42.654;23.376;2022-11-27T07:20:34;3.50;62.20
1103;DHT22;538;42.654;23.376;2022-11-27T07:23:01;3.40;60.30
1103;DHT22;538;42.654;23.376;2022-11-27T07:25:28;3.60;59.30
1103;DHT22;538;42.654;23.376;2022-11-27T07:27:57;3.40;58.80
1103;DHT22;538;42.654;23.376;2022-11-27T07:30:24;3.60;59.20
1103;DHT22;538;42.654;23.376;2022-11-27T07:32:51;3.70;61.30
1103;DHT22;538;42.654;23.376;2022-11-27T07:35:18;3.70;60.80
1103;DHT22;538;42.654;23.376;2022-11-27T07:37:46;3.60;59.30
1103;DHT22;538;42.654;23.376;2022-11-27T07:40:13;3.80;59.10
1103;DHT22;538;42.654;23.376;2022-11-27T07:42:40;4.00;59.00
1103;DHT22;538;42.654;23.376;2022-11-27T07:45:10;3.90;57.10
1103;DHT22;538;42.654;23.376;2022-11-27T07:47:39;3.90;56.40
1103;DHT22;538;42.654;23.376;2022-11-27T07:50:08;4.00;56.70
1103;DHT22;538;42.654;23.376;2022-11-27T07:52:35;4.00;57.70
1103;DHT22;538;42.654;23.376;2022-11-27T07:55:04;4.10;56.40
1103;DHT22;538;42.654;23.376;2022-11-27T07:57:31;4.00;55.50
1103;DHT22;538;42.654;23.376;2022-11-27T08:02:27;4.50;53.60
1103;DHT22;538;42.654;23.376;2022-11-27T08:07:26;4.90;51.00
1103;DHT22;538;42.654;23.376;2022-11-27T08:09:53;4.60;50.20
1103;DHT22;538;42.654;23.376;2022-11-27T08:12:22;4.70;48.10
1103;DHT22;538;42.654;23.376;2022-11-27T08:14:49;4.70;48.40
1103;DHT22;538;42.654;23.376;2022-11-27T08:17:16;4.60;48.00
1103;DHT22;538;42.654;23.376;2022-11-27T08:19:45;4.40;46.70
1103;DHT22;538;42.654;23.376;2022-11-27T08:22:13;4.60;48.80
1103;DHT22;538;42.654;23.376;2022-11-27T08:24:42;4.70;49.40
1103;DHT22;538;42.654;23.376;2022-11-27T08:29:36;4.70;48.00
1103;DHT22;538;42.654;23.376;2022-11-27T08:32:04;4.90;47.10
1103;DHT22;538;42.654;23.376;2022-11-27T08:34:31;4.80;46.20
1103;DHT22;538;42.654;23.376;2022-11-27T08:37:00;5.00;45.40
1103;DHT22;538;42.654;23.376;2022-11-27T08:39:27;5.00;44.20
1103;DHT22;538;42.654;23.376;2022-11-27T08:41:54;5.00;44.00
1103;DHT22;538;42.654;23.376;2022-11-27T08:44:21;5.00;43.30
1103;DHT22;538;42.654;23.376;2022-11-27T08:46:50;5.10;44.00
1103;DHT22;538;42.654;23.376;2022-11-27T08:49:17;5.10;45.80
1103;DHT22;538;42.654;23.376;2022-11-27T08:51:44;5.10;45.90
1103;DHT22;538;42.654;23.376;2022-11-27T08:54:13;4.80;45.00
1103;DHT22;538;42.654;23.376;2022-11-27T08:59:08;5.10;45.70
1103;DHT22;538;42.654;23.376;2022-11-27T09:01:35;5.30;46.40
1103;DHT22;538;42.654;23.376;2022-11-27T09:06:31;5.50;42.40
1103;DHT22;538;42.654;23.376;2022-11-27T09:09:00;5.50;42.20
1103;DHT22;538;42.654;23.376;2022-11-27T09:11:30;5.60;42.60
1103;DHT22;538;42.654;23.376;2022-11-27T09:13:57;5.50;43.50
1103;DHT22;538;42.654;23.376;2022-11-27T09:16:25;5.50;42.30
1103;DHT22;538;42.654;23.376;2022-11-27T09:18:55;5.50;42.80
1103;DHT22;538;42.654;23.376;2022-11-27T09:21:24;5.60;43.00
1103;DHT22;538;42.654;23.376;2022-11-27T09:23:52;5.60;40.30
1103;DHT22;538;42.654;23.376;2022-11-27T09:28:50;6.00;39.10
1103;DHT22;538;42.654;23.376;2022-11-27T09:31:18;6.00;38.80
1103;DHT22;538;42.654;23.376;2022-11-27T09:33:45;6.00;36.50
1103;DHT22;538;42.654;23.376;2022-11-27T09:36:14;6.30;36.90
1103;DHT22;538;42.654;23.376;2022-11-27T09:38:42;6.50;36.90
1103;DHT22;538;42.654;23.376;2022-11-27T09:41:36;6.90;35.00
1103;DHT22;538;42.654;23.376;2022-11-27T09:44:24;6.90;32.50
1103;DHT22;538;42.654;23.376;2022-11-27T09:46:53;7.00;32.40
1103;DHT22;538;42.654;23.376;2022-11-27T09:49:25;7.10;31.10
1103;DHT22;538;42.654;23.376;2022-11-27T09:51:57;7.10;30.20
1103;DHT22;538;42.654;23.376;2022-11-27T09:54:32;7.40;29.50
1103;DHT22;538;42.654;23.376;2022-11-27T09:57:01;6.90;29.60
1103;DHT22;538;42.654;23.376;2022-11-27T09:59:37;6.90;29.90
1103;DHT22;538;42.654;23.376;2022-11-27T10:02:16;7.40;28.50
1103;DHT22;538;42.654;23.376;2022-11-27T10:04:43;7.40;28.70
1103;DHT22;538;42.654;23.376;2022-11-27T10:07:19;7.30;28.80
1103;DHT22;538;42.654;23.376;2022-11-27T10:10:04;7.50;29.30
1103;DHT22;538;42.654;23.376;2022-11-27T10:12:44;7.40;27.70
1103;DHT22;538;42.654;23.376;2022-11-27T10:15:28;7.70;27.80
1103;DHT22;538;42.654;23.376;2022-11-27T10:18:02;7.70;27.30
1103;DHT22;538;42.654;23.376;2022-11-27T10:20:34;7.70;26.50
1103;DHT22;538;42.654;23.376;2022-11-27T10:23:13;7.80;26.10
1103;DHT22;538;42.654;23.376;2022-11-27T10:25:43;7.80;24.40
1103;DHT22;538;42.654;23.376;2022-11-27T10:28:17;8.20;24.90
1103;DHT22;538;42.654;23.376;2022-11-27T10:30:53;7.90;24.50
1103;DHT22;538;42.654;23.376;2022-11-27T10:33:26;7.90;24.90
1103;DHT22;538;42.654;23.376;2022-11-27T10:35:55;8.00;25.90
1103;DHT22;538;42.654;23.376;2022-11-27T10:38:25;8.10;25.00
1103;DHT22;538;42.654;23.376;2022-11-27T10:41:02;8.10;25.30
1103;DHT22;538;42.654;23.376;2022-11-27T10:43:31;8.20;24.70
1103;DHT22;538;42.654;23.376;2022-11-27T10:46:03;8.20;25.00
1103;DHT22;538;42.654;23.376;2022-11-27T10:48:32;8.10;24.50
1103;DHT22;538;42.654;23.376;2022-11-27T10:51:00;8.30;24.60
1103;DHT22;538;42.654;23.376;2022-11-27T10:53:34;8.20;24.50
1103;DHT22;538;42.654;23.376;2022-11-27T10:56:25;8.00;23.20
1103;DHT22;538;42.654;23.376;2022-11-27T10:58:58;8.30;23.90
1103;DHT22;538;42.654;23.376;2022-11-27T11:01:41;8.20;24.50
1103;DHT22;538;42.654;23.376;2022-11-27T11:04:10;8.20;24.60
1103;DHT22;538;42.654;23.376;2022-11-27T11:06:41;8.30;24.10
1103;DHT22;538;42.654;23.376;2022-11-27T11:09:22;8.30;23.60
1103;DHT22;538;42.654;23.376;2022-11-27T11:11:50;8.30;23.40
1103;DHT22;538;42.654;23.376;2022-11-27T11:14:19;8.40;24.00
1103;DHT22;538;42.654;23.376;2022-11-27T11:16:49;8.10;23.60
1103;DHT22;538;42.654;23.376;2022-11-27T11:19:27;8.30;24.20
1103;DHT22;538;42.654;23.376;2022-11-27T11:21:55;8.20;24.60
1103;DHT22;538;42.654;23.376;2022-11-27T11:24:26;8.10;24.50
1103;DHT22;538;42.654;23.376;2022-11-27T11:26:56;8.10;24.00
1103;DHT22;538;42.654;23.376;2022-11-27T11:29:34;8.10;23.50
1103;DHT22;538;42.654;23.376;2022-11-27T11:32:09;7.90;24.10
1103;DHT22;538;42.654;23.376;2022-11-27T11:34:41;7.90;23.50
1103;DHT22;538;42.654;23.376;2022-11-27T11:37:22;7.70;23.90
1103;DHT22;538;42.654;23.376;2022-11-27T11:39:55;7.90;24.90
1103;DHT22;538;42.654;23.376;2022-11-27T11:42:28;7.80;24.80
1103;DHT22;538;42.654;23.376;2022-11-27T11:45:04;7.70;25.60
1103;DHT22;538;42.654;23.376;2022-11-27T11:47:44;7.60;24.90
1103;DHT22;538;42.654;23.376;2022-11-27T11:50:12;7.60;25.20
1103;DHT22;538;42.654;23.376;2022-11-27T11:52:47;8.60;25.20
1103;DHT22;538;42.654;23.376;2022-11-27T11:55:25;7.80;23.90
1103;DHT22;538;42.654;23.376;2022-11-27T11:58:17;7.60;24.30
1103;DHT22;538;42.654;23.376;2022-11-27T12:00:48;7.50;24.30
1103;DHT22;538;42.654;23.376;2022-11-27T12:03:33;7.50;25.00
1103;DHT22;538;42.654;23.376;2022-11-27T12:06:33;6.10;23.80
1103;DHT22;538;42.654;23.376;2022-11-27T12:09:10;7.50;23.70
1103;DHT22;538;42.654;23.376;2022-11-27T12:11:48;7.50;23.70
1103;DHT22;538;42.654;23.376;2022-11-27T12:14:26;7.50;24.10
1103;DHT22;538;42.654;23.376;2022-11-27T12:17:04;7.50;23.60
1103;DHT22;538;42.654;23.376;2022-11-27T12:20:08;7.50;24.20
1103;DHT22;538;42.654;23.376;2022-11-27T12:25:52;7.30;25.10
1103;DHT22;538;42.654;23.376;2022-11-27T12:28:40;7.60;25.50
1103;DHT22;538;42.654;23.376;2022-11-27T12:31:22;7.40;25.30
1103;DHT22;538;42.654;23.376;2022-11-27T12:33:59;7.40;25.00
1103;DHT22;538;42.654;23.376;2022-11-27T12:36:44;7.60;25.10
1103;DHT22;538;42.654;23.376;2022-11-27T12:39:21;7.60;25.00
1103;DHT22;538;42.654;23.376;2022-11-27T12:42:05;7.60;24.60
1103;DHT22;538;42.654;23.376;2022-11-27T12:44:44;7.60;24.40
1103;DHT22;538;42.654;23.376;2022-11-27T12:47:20;7.70;24.20
1103;DHT22;538;42.654;23.376;2022-11-27T12:49:54;6.70;23.80
1103;DHT22;538;42.654;23.376;2022-11-27T12:52:30;7.70;24.00
1103;DHT22;538;42.654;23.376;2022-11-27T12:55:02;7.60;24.60
1103;DHT22;538;42.654;23.376;2022-11-27T12:57:40;7.60;25.10
1103;DHT22;538;42.654;23.376;2022-11-27T13:00:14;7.40;25.30
1103;DHT22;538;42.654;23.376;2022-11-27T13:02:58;7.40;26.10
1103;DHT22;538;42.654;23.376;2022-11-27T13:05:40;7.40;26.40
1103;DHT22;538;42.654;23.376;2022-11-27T13:08:22;7.50;25.50
1103;DHT22;538;42.654;23.376;2022-11-27T13:10:55;7.40;25.80
1103;DHT22;538;42.654;23.376;2022-11-27T13:13:29;7.60;25.90
1103;DHT22;538;42.654;23.376;2022-11-27T13:16:04;7.70;25.70
1103;DHT22;538;42.654;23.376;2022-11-27T13:18:37;7.50;26.00
1103;DHT22;538;42.654;23.376;2022-11-27T13:21:08;7.60;26.00
1103;DHT22;538;42.654;23.376;2022-11-27T13:23:40;7.80;25.50
1103;DHT22;538;42.654;23.376;2022-11-27T13:26:25;7.60;25.90
1103;DHT22;538;42.654;23.376;2022-11-27T13:28:58;7.50;25.20
1103;DHT22;538;42.654;23.376;2022-11-27T13:31:29;7.50;25.60
1103;DHT22;538;42.654;23.376;2022-11-27T13:34:01;7.40;26.00
1103;DHT22;538;42.654;23.376;2022-11-27T13:36:36;7.40;26.20
1103;DHT22;538;42.654;23.376;2022-11-27T13:39:26;7.30;26.20
1103;DHT22;538;42.654;23.376;2022-11-27T13:42:03;7.30;26.30
1103;DHT22;538;42.654;23.376;2022-11-27T13:44:38;7.30;27.20
1103;DHT22;538;42.654;23.376;2022-11-27T13:47:14;7.20;27.30
1103;DHT22;538;42.654;23.376;2022-11-27T13:49:57;7.40;27.50
1103;DHT22;538;42.654;23.376;2022-11-27T13:52:31;7.20;27.60
1103;DHT22;538;42.654;23.376;2022-11-27T13:55:03;7.10;27.30
1103;DHT22;538;42.654;23.376;2022-11-27T13:57:33;7.10;27.10
1103;DHT22;538;42.654;23.376;2022-11-27T14:00:06;7.10;27.50
1103;DHT22;538;42.654;23.376;2022-11-27T14:02:43;7.00;26.30
1103;DHT22;538;42.654;23.376;2022-11-27T14:05:14;6.00;25.70
1103;DHT22;538;42.654;23.376;2022-11-27T14:07:45;7.00;25.50
1103;DHT22;538;42.654;23.376;2022-11-27T14:10:20;7.00;25.60
1103;DHT22;538;42.654;23.376;2022-11-27T14:12:52;7.10;26.20
1103;DHT22;538;42.654;23.376;2022-11-27T14:15:23;6.90;26.30
1103;DHT22;538;42.654;23.376;2022-11-27T14:17:53;7.00;25.10
1103;DHT22;538;42.654;23.376;2022-11-27T14:20:32;7.00;25.50
1103;DHT22;538;42.654;23.376;2022-11-27T14:25:34;8.20;25.80
1103;DHT22;538;42.654;23.376;2022-11-27T14:28:08;6.70;25.60
1103;DHT22;538;42.654;23.376;2022-11-27T14:30:42;7.30;25.40
1103;DHT22;538;42.654;23.376;2022-11-27T14:33:16;6.70;24.70
1103;DHT22;538;42.654;23.376;2022-11-27T14:35:48;7.10;23.50
1103;DHT22;538;42.654;23.376;2022-11-27T14:38:16;7.00;23.80
1103;DHT22;538;42.654;23.376;2022-11-27T14:40:45;6.80;22.80
1103;DHT22;538;42.654;23.376;2022-11-27T14:43:15;7.10;23.30
1103;DHT22;538;42.654;23.376;2022-11-27T14:45:44;7.20;21.10
1103;DHT22;538;42.654;23.376;2022-11-27T14:48:19;6.90;17.90
1103;DHT22;538;42.654;23.376;2022-11-27T14:50:47;6.80;17.90
1103;DHT22;538;42.654;23.376;2022-11-27T14:53:15;6.90;17.90
1103;DHT22;538;42.654;23.376;2022-11-27T14:55:46;6.80;16.80
1103;DHT22;538;42.654;23.376;2022-11-27T14:58:18;7.00;15.70
1103;DHT22;538;42.654;23.376;2022-11-27T15:00:55;6.50;15.80
1103;DHT22;538;42.654;23.376;2022-11-27T15:03:25;6.90;15.50
1103;DHT22;538;42.654;23.376;2022-11-27T15:05:56;6.80;16.50
1103;DHT22;538;42.654;23.376;2022-11-27T15:08:24;6.70;15.20
1103;DHT22;538;42.654;23.376;2022-11-27T15:10:54;6.80;15.60
1103;DHT22;538;42.654;23.376;2022-11-27T15:13:23;6.80;16.10
1103;DHT22;538;42.654;23.376;2022-11-27T15:15:57;6.50;14.50
1103;DHT22;538;42.654;23.376;2022-11-27T15:18:27;6.60;15.50
1103;DHT22;538;42.654;23.376;2022-11-27T15:20:56;6.60;16.00
1103;DHT22;538;42.654;23.376;2022-11-27T15:23:26;6.60;16.30
1103;DHT22;538;42.654;23.376;2022-11-27T15:26:07;6.80;16.80
1103;DHT22;538;42.654;23.376;2022-11-27T15:28:37;6.60;17.00
1103;DHT22;538;42.654;23.376;2022-11-27T15:31:24;6.80;17.50
1103;DHT22;538;42.654;23.376;2022-11-27T15:33:56;6.80;17.70
1103;DHT22;538;42.654;23.376;2022-11-27T15:36:23;6.70;18.60
1103;DHT22;538;42.654;23.376;2022-11-27T15:38:51;6.70;18.70
1103;DHT22;538;42.654;23.376;2022-11-27T15:41:21;6.80;19.10
1103;DHT22;538;42.654;23.376;2022-11-27T15:44:03;6.70;19.30
1103;DHT22;538;42.654;23.376;2022-11-27T15:46:47;6.70;21.90
1103;DHT22;538;42.654;23.376;2022-11-27T15:49:16;6.70;22.90
1103;DHT22;538;42.654;23.376;2022-11-27T15:51:45;6.70;22.00
1103;DHT22;538;42.654;23.376;2022-11-27T15:54:16;6.80;22.20
1103;DHT22;538;42.654;23.376;2022-11-27T15:56:44;7.00;20.50
1103;DHT22;538;42.654;23.376;2022-11-27T15:59:12;6.90;20.60
1103;DHT22;538;42.654;23.376;2022-11-27T16:01:40;6.70;20.40
1103;DHT22;538;42.654;23.376;2022-11-27T16:04:15;6.80;20.80
1103;DHT22;538;42.654;23.376;2022-11-27T16:06:42;6.80;20.90
1103;DHT22;538;42.654;23.376;2022-11-27T16:09:09;6.70;21.00
1103;DHT22;538;42.654;23.376;2022-11-27T16:11:37;6.30;20.50
1103;DHT22;538;42.654;23.376;2022-11-27T16:14:08;6.40;21.00
1103;DHT22;538;42.654;23.376;2022-11-27T16:16:36;6.50;21.60
1103;DHT22;538;42.654;23.376;2022-11-27T16:19:04;6.40;22.00
1103;DHT22;538;42.654;23.376;2022-11-27T16:21:33;6.50;22.50
1103;DHT22;538;42.654;23.376;2022-11-27T16:24:02;6.50;22.50
1103;DHT22;538;42.654;23.376;2022-11-27T16:26:31;6.50;22.40
1103;DHT22;538;42.654;23.376;2022-11-27T16:28:59;6.40;22.60
1103;DHT22;538;42.654;23.376;2022-11-27T16:31:27;6.60;22.40
1103;DHT22;538;42.654;23.376;2022-11-27T16:33:55;6.50;22.10
1103;DHT22;538;42.654;23.376;2022-11-27T16:36:23;6.50;22.40
1103;DHT22;538;42.654;23.376;2022-11-27T16:38:52;6.30;22.80
1103;DHT22;538;42.654;23.376;2022-11-27T16:41:27;6.50;22.30
1103;DHT22;538;42.654;23.376;2022-11-27T16:43:56;6.50;22.80
1103;DHT22;538;42.654;23.376;2022-11-27T16:46:25;6.30;22.40
1103;DHT22;538;42.654;23.376;2022-11-27T16:48:55;6.20;22.70
1103;DHT22;538;42.654;23.376;2022-11-27T16:51:26;6.20;22.00
1103;DHT22;538;42.654;23.376;2022-11-27T16:53:56;6.20;22.60
1103;DHT22;538;42.654;23.376;2022-11-27T16:56:28;6.20;23.30
1103;DHT22;538;42.654;23.376;2022-11-27T16:58:57;6.30;23.00
1103;DHT22;538;42.654;23.376;2022-11-27T17:01:26;6.00;22.50
1103;DHT22;538;42.654;23.376;2022-11-27T17:03:55;6.20;22.60
1103;DHT22;538;42.654;23.376;2022-11-27T17:06:26;6.20;22.80
1103;DHT22;538;42.654;23.376;2022-11-27T17:08:56;6.20;22.80
1103;DHT22;538;42.654;23.376;2022-11-27T17:11:26;6.30;22.80
1103;DHT22;538;42.654;23.376;2022-11-27T17:13:56;6.20;22.80